sensor_id;sensor_type;location;lat;lon;timestamp;temperature;humidity
52899;DHT22;38763;53.096;6.062;2023-02-28T00:00:39;4.10;99.90
52899;DHT22;38763;53.096;6.062;2023-02-28T00:03:05;4.10;99.90
52899;DHT22;38763;53.096;6.062;2023-02-28T00:05:31;4.10;99.90
52899;DHT22;38763;53.096;6.062;2023-02-28T00:07:57;4.10;99.90
52899;DHT22;38763;53.096;6.062;2023-02-28T00:10:26;4.10;99.90
52899;DHT22;38763;53.096;6.062;2023-02-28T00:12:54;4.10;99.90
52899;DHT22;38763;53.096;6.062;2023-02-28T00:15:22;4.00;99.90
52899;DHT22;38763;53.096;6.062;2023-02-28T00:17:49;4.00;99.90
52899;DHT22;38763;53.096;6.062;2023-02-28T00:20:15;4.00;99.90
52899;DHT22;38763;53.096;6.062;2023-02-28T00:22:46;4.00;99.90
52899;DHT22;38763;53.096;6.062;2023-02-28T00:25:14;4.00;99.90
52899;DHT22;38763;53.096;6.062;2023-02-28T00:27:41;4.00;99.90
52899;DHT22;38763;53.096;6.062;2023-02-28T00:30:09;3.90;99.90
52899;DHT22;38763;53.096;6.062;2023-02-28T00:32:35;3.90;99.90
52899;DHT22;38763;53.096;6.062;2023-02-28T00:35:03;3.90;99.90
52899;DHT22;38763;53.096;6.062;2023-02-28T00:37:29;3.90;99.90
52899;DHT22;38763;53.096;6.062;2023-02-28T00:39:54;3.90;99.90
52899;DHT22;38763;53.096;6.062;2023-02-28T00:42:20;3.90;99.90
52899;DHT22;38763;53.096;6.062;2023-02-28T00:44:46;3.80;99.90
52899;DHT22;38763;53.096;6.062;2023-02-28T00:47:11;3.80;99.90
52899;DHT22;38763;53.096;6.062;2023-02-28T00:49:37;3.80;99.90
52899;DHT22;38763;53.096;6.062;2023-02-28T00:52:03;3.80;99.90
52899;DHT22;38763;53.096;6.062;2023-02-28T00:54:28;3.80;99.90
52899;DHT22;38763;53.096;6.062;2023-02-28T00:56:54;3.80;99.90
52899;DHT22;38763;53.096;6.062;2023-02-28T00:59:20;3.80;99.90
52899;DHT22;38763;53.096;6.062;2023-02-28T01:01:47;3.90;99.90
52899;DHT22;38763;53.096;6.062;2023-02-28T01:04:13;3.90;99.90
52899;DHT22;38763;53.096;6.062;2023-02-28T01:06:40;3.90;99.90
52899;DHT22;38763;53.096;6.062;2023-02-28T01:09:07;3.90;99.90
52899;DHT22;38763;53.096;6.062;2023-02-28T01:11:33;3.80;99.90
52899;DHT22;38763;53.096;6.062;2023-02-28T01:13:59;3.80;99.90
52899;DHT22;38763;53.096;6.062;2023-02-28T01:16:25;3.80;99.90
52899;DHT22;38763;53.096;6.062;2023-02-28T01:18:51;3.80;99.90
52899;DHT22;38763;53.096;6.062;2023-02-28T01:21:19;3.80;99.90
52899;DHT22;38763;53.096;6.062;2023-02-28T01:23:45;3.80;99.90
52899;DHT22;38763;53.096;6.062;2023-02-28T01:26:20;3.80;99.90
52899;DHT22;38763;53.096;6.062;2023-02-28T01:28:47;3.90;99.90
52899;DHT22;38763;53.096;6.062;2023-02-28T01:31:13;3.80;99.90
52899;DHT22;38763;53.096;6.062;2023-02-28T01:33:39;3.90;99.90
52899;DHT22;38763;53.096;6.062;2023-02-28T01:36:17;3.80;99.90
52899;DHT22;38763;53.096;6.062;2023-02-28T01:38:43;3.80;99.90
52899;DHT22;38763;53.096;6.062;2023-02-28T01:41:20;3.80;99.90
52899;DHT22;38763;53.096;6.062;2023-02-28T01:46:13;3.80;99.90
52899;DHT22;38763;53.096;6.062;2023-02-28T01:49:07;3.80;99.90
52899;DHT22;38763;53.096;6.062;2023-02-28T01:51:51;3.70;99.90
52899;DHT22;38763;53.096;6.062;2023-02-28T01:54:24;3.70;99.90
52899;DHT22;38763;53.096;6.062;2023-02-28T01:57:06;3.80;99.90
52899;DHT22;38763;53.096;6.062;2023-02-28T01:59:43;3.70;99.90
52899;DHT22;38763;53.096;6.062;2023-02-28T02:02:15;3.80;99.90
52899;DHT22;38763;53.096;6.062;2023-02-28T02:04:50;3.70;99.90
52899;DHT22;38763;53.096;6.062;2023-02-28T02:07:16;3.80;99.90
52899;DHT22;38763;53.096;6.062;2023-02-28T02:09:42;3.80;99.90
52899;DHT22;38763;53.096;6.062;2023-02-28T02:12:24;3.80;99.90
52899;DHT22;38763;53.096;6.062;2023-02-28T02:17:51;3.80;99.90
52899;DHT22;38763;53.096;6.062;2023-02-28T02:20:32;3.80;99.90
52899;DHT22;38763;53.096;6.062;2023-02-28T02:23:31;3.80;99.90
52899;DHT22;38763;53.096;6.062;2023-02-28T02:29:37;3.80;99.90
52899;DHT22;38763;53.096;6.062;2023-02-28T02:32:14;3.80;99.90
52899;DHT22;38763;53.096;6.062;2023-02-28T02:37:38;3.80;99.90
52899;DHT22;38763;53.096;6.062;2023-02-28T02:40:17;3.90;99.90
52899;DHT22;38763;53.096;6.062;2023-02-28T02:45:33;3.90;99.90
52899;DHT22;38763;53.096;6.062;2023-02-28T02:48:02;3.90;99.90
52899;DHT22;38763;53.096;6.062;2023-02-28T02:50:38;3.80;99.90
52899;DHT22;38763;53.096;6.062;2023-02-28T02:53:06;3.90;99.90
52899;DHT22;38763;53.096;6.062;2023-02-28T02:55:36;3.80;99.90
52899;DHT22;38763;53.096;6.062;2023-02-28T02:58:05;3.90;99.90
52899;DHT22;38763;53.096;6.062;2023-02-28T03:00:39;3.80;99.90
52899;DHT22;38763;53.096;6.062;2023-02-28T03:03:08;3.90;99.90
52899;DHT22;38763;53.096;6.062;2023-02-28T03:05:48;3.90;99.90
52899;DHT22;38763;53.096;6.062;2023-02-28T03:08:14;4.00;99.90
52899;DHT22;38763;53.096;6.062;2023-02-28T03:10:42;3.90;99.90
52899;DHT22;38763;53.096;6.062;2023-02-28T03:15:58;3.90;99.90
52899;DHT22;38763;53.096;6.062;2023-02-28T03:24:25;3.90;99.90
52899;DHT22;38763;53.096;6.062;2023-02-28T03:26:58;4.00;99.90
52899;DHT22;38763;53.096;6.062;2023-02-28T03:29:50;4.00;99.90
52899;DHT22;38763;53.096;6.062;2023-02-28T03:32:46;4.00;99.90
52899;DHT22;38763;53.096;6.062;2023-02-28T03:35:22;3.90;99.90
52899;DHT22;38763;53.096;6.062;2023-02-28T03:37:55;4.00;99.90
52899;DHT22;38763;53.096;6.062;2023-02-28T03:40:27;4.00;99.90
52899;DHT22;38763;53.096;6.062;2023-02-28T03:42:58;4.00;99.90
52899;DHT22;38763;53.096;6.062;2023-02-28T03:45:28;3.90;99.90
52899;DHT22;38763;53.096;6.062;2023-02-28T03:48:34;4.00;99.90
52899;DHT22;38763;53.096;6.062;2023-02-28T03:50:54;4.00;99.90
52899;DHT22;38763;53.096;6.062;2023-02-28T03:53:27;4.00;99.90
52899;DHT22;38763;53.096;6.062;2023-02-28T03:55:59;4.00;99.90
52899;DHT22;38763;53.096;6.062;2023-02-28T03:58:34;3.90;99.90
52899;DHT22;38763;53.096;6.062;2023-02-28T04:01:49;4.00;99.90
52899;DHT22;38763;53.096;6.062;2023-02-28T04:04:08;4.10;99.90
52899;DHT22;38763;53.096;6.062;2023-02-28T04:06:35;4.00;99.90
52899;DHT22;38763;53.096;6.062;2023-02-28T04:09:02;4.10;99.90
52899;DHT22;38763;53.096;6.062;2023-02-28T04:11:43;4.00;99.90
52899;DHT22;38763;53.096;6.062;2023-02-28T04:14:10;4.10;99.90
52899;DHT22;38763;53.096;6.062;2023-02-28T04:16:39;4.10;99.90
52899;DHT22;38763;53.096;6.062;2023-02-28T04:19:06;4.10;99.90
52899;DHT22;38763;53.096;6.062;2023-02-28T04:21:54;4.20;99.90
52899;DHT22;38763;53.096;6.062;2023-02-28T04:24:23;4.20;99.90
52899;DHT22;38763;53.096;6.062;2023-02-28T04:26:54;4.20;99.90
52899;DHT22;38763;53.096;6.062;2023-02-28T04:29:27;4.20;99.90
52899;DHT22;38763;53.096;6.062;2023-02-28T04:31:54;4.30;99.90
52899;DHT22;38763;53.096;6.062;2023-02-28T04:34:21;4.30;99.90
52899;DHT22;38763;53.096;6.062;2023-02-28T04:36:47;4.30;99.90
52899;DHT22;38763;53.096;6.062;2023-02-28T04:39:19;4.20;99.90
52899;DHT22;38763;53.096;6.062;2023-02-28T04:41:45;4.20;99.90
52899;DHT22;38763;53.096;6.062;2023-02-28T04:44:11;4.10;99.90
52899;DHT22;38763;53.096;6.062;2023-02-28T04:46:37;4.10;99.90
52899;DHT22;38763;53.096;6.062;2023-02-28T04:49:02;4.00;99.90
52899;DHT22;38763;53.096;6.062;2023-02-28T04:51:28;4.10;99.90
52899;DHT22;38763;53.096;6.062;2023-02-28T04:53:54;4.00;99.90
52899;DHT22;38763;53.096;6.062;2023-02-28T04:56:20;4.00;99.90
52899;DHT22;38763;53.096;6.062;2023-02-28T04:58:46;3.90;99.90
52899;DHT22;38763;53.096;6.062;2023-02-28T05:03:48;4.00;99.90
52899;DHT22;38763;53.096;6.062;2023-02-28T05:06:14;4.00;99.90
52899;DHT22;38763;53.096;6.062;2023-02-28T05:08:40;3.80;99.90
52899;DHT22;38763;53.096;6.062;2023-02-28T05:11:14;3.80;99.90
52899;DHT22;38763;53.096;6.062;2023-02-28T05:13:40;3.80;99.90
52899;DHT22;38763;53.096;6.062;2023-02-28T05:16:06;3.70;99.90
52899;DHT22;38763;53.096;6.062;2023-02-28T05:18:32;3.70;99.90
52899;DHT22;38763;53.096;6.062;2023-02-28T05:20:57;3.70;99.90
52899;DHT22;38763;53.096;6.062;2023-02-28T05:23:23;3.60;99.90
52899;DHT22;38763;53.096;6.062;2023-02-28T05:25:49;3.60;99.90
52899;DHT22;38763;53.096;6.062;2023-02-28T05:28:15;3.50;99.90
52899;DHT22;38763;53.096;6.062;2023-02-28T05:30:40;3.60;99.90
52899;DHT22;38763;53.096;6.062;2023-02-28T05:33:06;3.50;99.90
52899;DHT22;38763;53.096;6.062;2023-02-28T05:35:32;3.50;99.90
52899;DHT22;38763;53.096;6.062;2023-02-28T05:37:57;3.40;99.90
52899;DHT22;38763;53.096;6.062;2023-02-28T05:40:23;3.40;99.90
52899;DHT22;38763;53.096;6.062;2023-02-28T05:42:50;3.40;99.90
52899;DHT22;38763;53.096;6.062;2023-02-28T05:45:16;3.40;99.90
52899;DHT22;38763;53.096;6.062;2023-02-28T05:47:42;3.30;99.90
52899;DHT22;38763;53.096;6.062;2023-02-28T05:50:08;3.40;99.90
52899;DHT22;38763;53.096;6.062;2023-02-28T05:52:36;3.30;99.90
52899;DHT22;38763;53.096;6.062;2023-02-28T05:55:02;3.30;99.90
52899;DHT22;38763;53.096;6.062;2023-02-28T05:57:28;3.30;99.90
52899;DHT22;38763;53.096;6.062;2023-02-28T05:59:53;3.30;99.90
52899;DHT22;38763;53.096;6.062;2023-02-28T06:02:19;3.20;99.90
52899;DHT22;38763;53.096;6.062;2023-02-28T06:04:45;3.30;99.90
52899;DHT22;38763;53.096;6.062;2023-02-28T06:07:11;3.30;99.90
52899;DHT22;38763;53.096;6.062;2023-02-28T06:09:37;3.20;99.90
52899;DHT22;38763;53.096;6.062;2023-02-28T06:12:04;3.30;99.90
52899;DHT22;38763;53.096;6.062;2023-02-28T06:14:31;3.20;99.90
52899;DHT22;38763;53.096;6.062;2023-02-28T06:16:58;3.10;99.90
52899;DHT22;38763;53.096;6.062;2023-02-28T06:19:23;3.10;99.90
52899;DHT22;38763;53.096;6.062;2023-02-28T06:21:51;3.20;99.90
52899;DHT22;38763;53.096;6.062;2023-02-28T06:24:22;3.10;99.90
52899;DHT22;38763;53.096;6.062;2023-02-28T06:26:48;3.00;99.90
52899;DHT22;38763;53.096;6.062;2023-02-28T06:29:14;3.00;99.90
52899;DHT22;38763;53.096;6.062;2023-02-28T06:31:44;3.10;99.90
52899;DHT22;38763;53.096;6.062;2023-02-28T06:34:11;3.00;99.90
52899;DHT22;38763;53.096;6.062;2023-02-28T06:36:38;3.00;99.90
52899;DHT22;38763;53.096;6.062;2023-02-28T06:39:04;3.00;99.90
52899;DHT22;38763;53.096;6.062;2023-02-28T06:41:30;3.00;99.90
52899;DHT22;38763;53.096;6.062;2023-02-28T06:43:56;2.90;99.90
52899;DHT22;38763;53.096;6.062;2023-02-28T06:46:22;2.90;99.90
52899;DHT22;38763;53.096;6.062;2023-02-28T06:48:49;2.90;99.90
52899;DHT22;38763;53.096;6.062;2023-02-28T06:51:18;2.90;99.90
52899;DHT22;38763;53.096;6.062;2023-02-28T06:53:46;2.90;99.90
52899;DHT22;38763;53.096;6.062;2023-02-28T06:56:13;2.90;99.90
52899;DHT22;38763;53.096;6.062;2023-02-28T06:58:39;2.80;99.90
52899;DHT22;38763;53.096;6.062;2023-02-28T07:01:06;2.80;99.90
52899;DHT22;38763;53.096;6.062;2023-02-28T07:03:32;2.80;99.90
52899;DHT22;38763;53.096;6.062;2023-02-28T07:05:58;2.80;99.90
52899;DHT22;38763;53.096;6.062;2023-02-28T07:08:25;2.70;99.90
52899;DHT22;38763;53.096;6.062;2023-02-28T07:10:56;2.70;99.90
52899;DHT22;38763;53.096;6.062;2023-02-28T07:13:23;2.80;99.90
52899;DHT22;38763;53.096;6.062;2023-02-28T07:16:01;2.70;99.90
52899;DHT22;38763;53.096;6.062;2023-02-28T07:18:27;2.70;99.90
52899;DHT22;38763;53.096;6.062;2023-02-28T07:20:53;2.70;99.90
52899;DHT22;38763;53.096;6.062;2023-02-28T07:23:19;2.70;99.90
52899;DHT22;38763;53.096;6.062;2023-02-28T07:25:45;2.70;99.90
52899;DHT22;38763;53.096;6.062;2023-02-28T07:28:12;2.70;99.90
52899;DHT22;38763;53.096;6.062;2023-02-28T07:30:38;2.70;99.90
52899;DHT22;38763;53.096;6.062;2023-02-28T07:33:03;2.60;99.90
52899;DHT22;38763;53.096;6.062;2023-02-28T07:35:29;2.60;99.90
52899;DHT22;38763;53.096;6.062;2023-02-28T07:37:57;2.70;99.90
52899;DHT22;38763;53.096;6.062;2023-02-28T07:40:23;2.70;99.90
52899;DHT22;38763;53.096;6.062;2023-02-28T07:42:49;2.70;99.90
52899;DHT22;38763;53.096;6.062;2023-02-28T07:45:14;2.70;99.90
52899;DHT22;38763;53.096;6.062;2023-02-28T07:47:41;2.80;99.90
52899;DHT22;38763;53.096;6.062;2023-02-28T07:50:09;2.70;99.90
52899;DHT22;38763;53.096;6.062;2023-02-28T07:52:36;2.80;99.90
52899;DHT22;38763;53.096;6.062;2023-02-28T07:55:03;2.70;99.90
52899;DHT22;38763;53.096;6.062;2023-02-28T07:57:30;2.70;99.90
52899;DHT22;38763;53.096;6.062;2023-02-28T07:59:55;2.70;99.90
52899;DHT22;38763;53.096;6.062;2023-02-28T08:02:21;2.80;99.90
52899;DHT22;38763;53.096;6.062;2023-02-28T08:04:46;2.70;99.90
52899;DHT22;38763;53.096;6.062;2023-02-28T08:07:14;2.80;99.90
52899;DHT22;38763;53.096;6.062;2023-02-28T08:09:40;2.80;99.90
52899;DHT22;38763;53.096;6.062;2023-02-28T08:12:06;2.80;99.90
52899;DHT22;38763;53.096;6.062;2023-02-28T08:14:33;2.80;99.90
52899;DHT22;38763;53.096;6.062;2023-02-28T08:16:58;2.90;99.90
52899;DHT22;38763;53.096;6.062;2023-02-28T08:19:24;2.90;99.90
52899;DHT22;38763;53.096;6.062;2023-02-28T08:21:49;2.90;99.90
52899;DHT22;38763;53.096;6.062;2023-02-28T08:24:15;3.00;99.90
52899;DHT22;38763;53.096;6.062;2023-02-28T08:26:41;2.90;99.90
52899;DHT22;38763;53.096;6.062;2023-02-28T08:29:06;2.90;99.90
52899;DHT22;38763;53.096;6.062;2023-02-28T08:31:32;3.00;99.90
52899;DHT22;38763;53.096;6.062;2023-02-28T08:33:58;3.00;99.90
52899;DHT22;38763;53.096;6.062;2023-02-28T08:36:25;3.00;99.90
52899;DHT22;38763;53.096;6.062;2023-02-28T08:38:51;3.00;99.90
52899;DHT22;38763;53.096;6.062;2023-02-28T08:41:17;3.00;99.90
52899;DHT22;38763;53.096;6.062;2023-02-28T08:43:43;3.00;99.90
52899;DHT22;38763;53.096;6.062;2023-02-28T08:46:12;3.10;99.90
52899;DHT22;38763;53.096;6.062;2023-02-28T08:48:39;3.10;99.90
52899;DHT22;38763;53.096;6.062;2023-02-28T08:51:08;3.10;99.90
52899;DHT22;38763;53.096;6.062;2023-02-28T08:53:35;3.20;99.90
52899;DHT22;38763;53.096;6.062;2023-02-28T08:58:31;3.30;99.90
52899;DHT22;38763;53.096;6.062;2023-02-28T09:00:57;3.50;99.90
52899;DHT22;38763;53.096;6.062;2023-02-28T09:03:23;3.60;99.90
52899;DHT22;38763;53.096;6.062;2023-02-28T09:05:57;3.70;99.90
52899;DHT22;38763;53.096;6.062;2023-02-28T09:08:24;3.70;99.90
52899;DHT22;38763;53.096;6.062;2023-02-28T09:10:51;3.70;99.90
52899;DHT22;38763;53.096;6.062;2023-02-28T09:13:18;3.60;99.90
52899;DHT22;38763;53.096;6.062;2023-02-28T09:15:44;3.60;99.90
52899;DHT22;38763;53.096;6.062;2023-02-28T09:18:10;3.80;99.90
52899;DHT22;38763;53.096;6.062;2023-02-28T09:20:40;3.80;99.90
52899;DHT22;38763;53.096;6.062;2023-02-28T09:23:07;3.80;99.90
52899;DHT22;38763;53.096;6.062;2023-02-28T09:25:34;3.80;99.90
52899;DHT22;38763;53.096;6.062;2023-02-28T09:28:00;3.90;99.90
52899;DHT22;38763;53.096;6.062;2023-02-28T09:30:25;3.90;99.90
52899;DHT22;38763;53.096;6.062;2023-02-28T09:32:51;4.00;99.90
52899;DHT22;38763;53.096;6.062;2023-02-28T09:35:23;4.10;99.90
52899;DHT22;38763;53.096;6.062;2023-02-28T09:37:50;4.20;99.90
52899;DHT22;38763;53.096;6.062;2023-02-28T09:40:20;4.30;99.90
52899;DHT22;38763;53.096;6.062;2023-02-28T09:42:49;4.30;99.90
52899;DHT22;38763;53.096;6.062;2023-02-28T09:47:47;4.60;99.90
52899;DHT22;38763;53.096;6.062;2023-02-28T09:52:53;4.50;99.90
52899;DHT22;38763;53.096;6.062;2023-02-28T09:57:50;4.30;99.90
52899;DHT22;38763;53.096;6.062;2023-02-28T10:00:24;4.20;99.90
52899;DHT22;38763;53.096;6.062;2023-02-28T10:05:50;4.40;99.90
52899;DHT22;38763;53.096;6.062;2023-02-28T10:11:23;4.60;99.90
52899;DHT22;38763;53.096;6.062;2023-02-28T10:14:02;4.60;99.90
52899;DHT22;38763;53.096;6.062;2023-02-28T10:22:11;4.70;99.90
52899;DHT22;38763;53.096;6.062;2023-02-28T10:24:43;4.60;99.90
52899;DHT22;38763;53.096;6.062;2023-02-28T10:27:21;4.60;99.90
52899;DHT22;38763;53.096;6.062;2023-02-28T10:29:53;4.50;99.90
52899;DHT22;38763;53.096;6.062;2023-02-28T10:32:21;4.70;99.90
52899;DHT22;38763;53.096;6.062;2023-02-28T10:35:00;4.70;99.90
52899;DHT22;38763;53.096;6.062;2023-02-28T10:37:27;4.70;99.90
52899;DHT22;38763;53.096;6.062;2023-02-28T10:39:53;4.60;99.90
52899;DHT22;38763;53.096;6.062;2023-02-28T10:42:29;4.60;99.90
52899;DHT22;38763;53.096;6.062;2023-02-28T10:45:18;4.60;99.90
52899;DHT22;38763;53.096;6.062;2023-02-28T10:58:27;4.90;99.90
52899;DHT22;38763;53.096;6.062;2023-02-28T11:00:54;5.10;99.90
52899;DHT22;38763;53.096;6.062;2023-02-28T11:03:34;5.10;99.90
52899;DHT22;38763;53.096;6.062;2023-02-28T11:06:07;5.20;99.90
52899;DHT22;38763;53.096;6.062;2023-02-28T11:08:33;5.10;99.90
52899;DHT22;38763;53.096;6.062;2023-02-28T11:11:04;5.20;99.90
52899;DHT22;38763;53.096;6.062;2023-02-28T11:13:36;5.20;99.90
52899;DHT22;38763;53.096;6.062;2023-02-28T11:16:08;5.10;99.90
52899;DHT22;38763;53.096;6.062;2023-02-28T11:21:07;5.20;99.90
52899;DHT22;38763;53.096;6.062;2023-02-28T11:23:36;5.30;99.90
52899;DHT22;38763;53.096;6.062;2023-02-28T11:26:04;5.20;99.90
52899;DHT22;38763;53.096;6.062;2023-02-28T11:28:39;5.30;99.90
52899;DHT22;38763;53.096;6.062;2023-02-28T11:38:45;5.30;99.90
52899;DHT22;38763;53.096;6.062;2023-02-28T11:44:18;5.30;99.90
52899;DHT22;38763;53.096;6.062;2023-02-28T11:55:37;5.30;99.90
52899;DHT22;38763;53.096;6.062;2023-02-28T12:05:46;5.40;99.90
52899;DHT22;38763;53.096;6.062;2023-02-28T12:11:16;5.50;99.90
52899;DHT22;38763;53.096;6.062;2023-02-28T12:14:00;5.40;99.90
52899;DHT22;38763;53.096;6.062;2023-02-28T12:16:34;5.40;99.90
52899;DHT22;38763;53.096;6.062;2023-02-28T12:26:59;5.60;99.90
52899;DHT22;38763;53.096;6.062;2023-02-28T12:29:29;5.70;99.90
52899;DHT22;38763;53.096;6.062;2023-02-28T12:32:07;5.70;99.90
52899;DHT22;38763;53.096;6.062;2023-02-28T12:34:43;5.60;99.90
52899;DHT22;38763;53.096;6.062;2023-02-28T12:37:33;5.70;99.90
52899;DHT22;38763;53.096;6.062;2023-02-28T12:40:03;5.80;99.90
52899;DHT22;38763;53.096;6.062;2023-02-28T12:42:38;5.80;99.90
52899;DHT22;38763;53.096;6.062;2023-02-28T12:45:17;5.90;99.90
52899;DHT22;38763;53.096;6.062;2023-02-28T12:47:45;5.90;99.90
52899;DHT22;38763;53.096;6.062;2023-02-28T12:50:12;6.00;99.90
52899;DHT22;38763;53.096;6.062;2023-02-28T12:58:33;6.20;99.90
52899;DHT22;38763;53.096;6.062;2023-02-28T13:09:27;6.50;99.90
52899;DHT22;38763;53.096;6.062;2023-02-28T13:11:55;6.70;99.90
52899;DHT22;38763;53.096;6.062;2023-02-28T13:27:50;6.90;99.90
52899;DHT22;38763;53.096;6.062;2023-02-28T13:35:46;6.80;99.90
52899;DHT22;38763;53.096;6.062;2023-02-28T13:38:24;6.90;99.90
52899;DHT22;38763;53.096;6.062;2023-02-28T13:40:50;6.80;99.90
52899;DHT22;38763;53.096;6.062;2023-02-28T13:43:17;6.80;99.90
52899;DHT22;38763;53.096;6.062;2023-02-28T13:46:11;6.90;99.90
52899;DHT22;38763;53.096;6.062;2023-02-28T13:48:38;6.80;99.90
52899;DHT22;38763;53.096;6.062;2023-02-28T13:51:40;6.90;99.90
52899;DHT22;38763;53.096;6.062;2023-02-28T13:54:32;6.80;99.90
52899;DHT22;38763;53.096;6.062;2023-02-28T13:59:55;6.90;99.90
52899;DHT22;38763;53.096;6.062;2023-02-28T14:02:55;6.90;99.90
52899;DHT22;38763;53.096;6.062;2023-02-28T14:05:24;7.00;99.90
52899;DHT22;38763;53.096;6.062;2023-02-28T14:07:54;6.90;99.90
52899;DHT22;38763;53.096;6.062;2023-02-28T14:10:34;6.90;99.90
52899;DHT22;38763;53.096;6.062;2023-02-28T14:15:43;6.90;99.90
52899;DHT22;38763;53.096;6.062;2023-02-28T14:20:49;6.90;99.90
52899;DHT22;38763;53.096;6.062;2023-02-28T14:32:25;6.70;99.90
52899;DHT22;38763;53.096;6.062;2023-02-28T14:37:30;6.70;99.90
52899;DHT22;38763;53.096;6.062;2023-02-28T14:39:59;6.60;99.90
52899;DHT22;38763;53.096;6.062;2023-02-28T14:42:30;6.50;99.90
52899;DHT22;38763;53.096;6.062;2023-02-28T14:44:56;6.60;99.90
52899;DHT22;38763;53.096;6.062;2023-02-28T14:47:24;6.70;99.90
52899;DHT22;38763;53.096;6.062;2023-02-28T14:49:52;6.70;99.90
52899;DHT22;38763;53.096;6.062;2023-02-28T14:52:22;6.70;99.90
52899;DHT22;38763;53.096;6.062;2023-02-28T14:55:01;6.70;99.90
52899;DHT22;38763;53.096;6.062;2023-02-28T14:57:39;6.60;99.90
52899;DHT22;38763;53.096;6.062;2023-02-28T15:00:29;6.60;99.90
52899;DHT22;38763;53.096;6.062;2023-02-28T15:02:56;6.60;99.90
52899;DHT22;38763;53.096;6.062;2023-02-28T15:05:25;6.50;99.90
52899;DHT22;38763;53.096;6.062;2023-02-28T15:08:13;6.50;99.90
52899;DHT22;38763;53.096;6.062;2023-02-28T15:10:49;6.50;99.90
52899;DHT22;38763;53.096;6.062;2023-02-28T15:13:16;6.50;99.90
52899;DHT22;38763;53.096;6.062;2023-02-28T15:20:50;6.50;99.90
52899;DHT22;38763;53.096;6.062;2023-02-28T15:23:16;6.50;99.90
52899;DHT22;38763;53.096;6.062;2023-02-28T15:25:42;6.40;99.90
52899;DHT22;38763;53.096;6.062;2023-02-28T15:28:14;6.50;99.90
52899;DHT22;38763;53.096;6.062;2023-02-28T15:30:57;6.40;99.90
52899;DHT22;38763;53.096;6.062;2023-02-28T15:33:31;6.40;99.90
52899;DHT22;38763;53.096;6.062;2023-02-28T15:36:14;6.40;99.90
52899;DHT22;38763;53.096;6.062;2023-02-28T15:38:42;6.40;99.90
52899;DHT22;38763;53.096;6.062;2023-02-28T15:41:26;6.30;99.90
52899;DHT22;38763;53.096;6.062;2023-02-28T15:44:27;6.30;99.90
52899;DHT22;38763;53.096;6.062;2023-02-28T15:47:03;6.30;99.90
52899;DHT22;38763;53.096;6.062;2023-02-28T15:49:37;6.30;99.90
52899;DHT22;38763;53.096;6.062;2023-02-28T15:52:03;6.20;99.90
52899;DHT22;38763;53.096;6.062;2023-02-28T15:54:33;6.20;99.90
52899;DHT22;38763;53.096;6.062;2023-02-28T15:57:07;6.20;99.90
52899;DHT22;38763;53.096;6.062;2023-02-28T15:59:36;6.20;99.90
52899;DHT22;38763;53.096;6.062;2023-02-28T16:02:22;6.20;99.90
52899;DHT22;38763;53.096;6.062;2023-02-28T16:07:53;6.10;99.90
52899;DHT22;38763;53.096;6.062;2023-02-28T16:10:20;6.10;99.90
52899;DHT22;38763;53.096;6.062;2023-02-28T16:12:46;6.10;99.90
52899;DHT22;38763;53.096;6.062;2023-02-28T16:15:22;6.10;99.90
52899;DHT22;38763;53.096;6.062;2023-02-28T16:17:48;6.10;99.90
52899;DHT22;38763;53.096;6.062;2023-02-28T16:20:26;6.00;99.90
52899;DHT22;38763;53.096;6.062;2023-02-28T16:22:52;6.00;99.90
52899;DHT22;38763;53.096;6.062;2023-02-28T16:25:24;6.00;99.90
52899;DHT22;38763;53.096;6.062;2023-02-28T16:27:54;5.90;99.90
52899;DHT22;38763;53.096;6.062;2023-02-28T16:30:23;5.90;99.90
52899;DHT22;38763;53.096;6.062;2023-02-28T16:32:50;5.90;99.90
52899;DHT22;38763;53.096;6.062;2023-02-28T16:35:16;5.80;99.90
52899;DHT22;38763;53.096;6.062;2023-02-28T16:37:43;5.90;99.90
52899;DHT22;38763;53.096;6.062;2023-02-28T16:40:18;5.80;99.90
52899;DHT22;38763;53.096;6.062;2023-02-28T16:42:46;5.80;99.90
52899;DHT22;38763;53.096;6.062;2023-02-28T16:45:27;5.80;99.90
52899;DHT22;38763;53.096;6.062;2023-02-28T16:47:54;5.70;99.90
52899;DHT22;38763;53.096;6.062;2023-02-28T16:50:26;5.70;99.90
52899;DHT22;38763;53.096;6.062;2023-02-28T16:52:52;5.70;99.90
52899;DHT22;38763;53.096;6.062;2023-02-28T16:55:20;5.60;99.90
52899;DHT22;38763;53.096;6.062;2023-02-28T16:57:57;5.50;99.90
52899;DHT22;38763;53.096;6.062;2023-02-28T17:00:24;5.50;99.90
52899;DHT22;38763;53.096;6.062;2023-02-28T17:02:51;5.40;99.90
52899;DHT22;38763;53.096;6.062;2023-02-28T17:05:17;5.30;99.90
52899;DHT22;38763;53.096;6.062;2023-02-28T17:07:44;5.30;99.90
52899;DHT22;38763;53.096;6.062;2023-02-28T17:10:13;5.20;99.90
52899;DHT22;38763;53.096;6.062;2023-02-28T17:12:39;5.10;99.90
52899;DHT22;38763;53.096;6.062;2023-02-28T17:15:05;4.90;99.90
52899;DHT22;38763;53.096;6.062;2023-02-28T17:17:32;4.80;99.90
52899;DHT22;38763;53.096;6.062;2023-02-28T17:19:57;4.70;99.90
52899;DHT22;38763;53.096;6.062;2023-02-28T17:22:23;4.60;99.90
52899;DHT22;38763;53.096;6.062;2023-02-28T17:24:51;4.60;99.90
52899;DHT22;38763;53.096;6.062;2023-02-28T17:27:20;4.50;99.90
52899;DHT22;38763;53.096;6.062;2023-02-28T17:29:46;4.50;99.90
52899;DHT22;38763;53.096;6.062;2023-02-28T17:32:12;4.40;99.90
52899;DHT22;38763;53.096;6.062;2023-02-28T17:34:38;4.30;99.90
52899;DHT22;38763;53.096;6.062;2023-02-28T17:37:03;4.20;99.90
52899;DHT22;38763;53.096;6.062;2023-02-28T17:39:29;4.10;99.90
52899;DHT22;38763;53.096;6.062;2023-02-28T17:41:56;4.00;99.90
52899;DHT22;38763;53.096;6.062;2023-02-28T17:44:23;3.90;99.90
52899;DHT22;38763;53.096;6.062;2023-02-28T17:46:49;3.80;99.90
52899;DHT22;38763;53.096;6.062;2023-02-28T17:49:17;3.80;99.90
52899;DHT22;38763;53.096;6.062;2023-02-28T17:51:42;3.70;99.90
52899;DHT22;38763;53.096;6.062;2023-02-28T17:54:08;3.60;99.90
52899;DHT22;38763;53.096;6.062;2023-02-28T17:56:34;3.60;99.90
52899;DHT22;38763;53.096;6.062;2023-02-28T17:59:00;3.40;99.90
52899;DHT22;38763;53.096;6.062;2023-02-28T18:01:26;3.50;99.90
52899;DHT22;38763;53.096;6.062;2023-02-28T18:03:52;3.40;99.90
52899;DHT22;38763;53.096;6.062;2023-02-28T18:06:34;3.30;99.90
52899;DHT22;38763;53.096;6.062;2023-02-28T18:09:00;3.30;99.90
52899;DHT22;38763;53.096;6.062;2023-02-28T18:11:25;3.40;99.90
52899;DHT22;38763;53.096;6.062;2023-02-28T18:14:07;3.30;99.90
52899;DHT22;38763;53.096;6.062;2023-02-28T18:16:33;3.20;99.90
52899;DHT22;38763;53.096;6.062;2023-02-28T18:18:59;3.20;99.90
52899;DHT22;38763;53.096;6.062;2023-02-28T18:21:27;3.10;99.90
52899;DHT22;38763;53.096;6.062;2023-02-28T18:23:53;3.10;99.90
52899;DHT22;38763;53.096;6.062;2023-02-28T18:26:19;2.90;99.90
52899;DHT22;38763;53.096;6.062;2023-02-28T18:28:45;3.00;99.90
52899;DHT22;38763;53.096;6.062;2023-02-28T18:31:13;2.90;99.90
52899;DHT22;38763;53.096;6.062;2023-02-28T18:33:41;2.90;99.90
52899;DHT22;38763;53.096;6.062;2023-02-28T18:36:07;2.90;99.90
52899;DHT22;38763;53.096;6.062;2023-02-28T18:38:33;2.90;99.90
52899;DHT22;38763;53.096;6.062;2023-02-28T18:41:01;3.10;99.90